createdAt,value
2019-01-03T00:01:00.527Z,1.40
2019-01-03T00:03:41.281Z,1.37
2019-01-03T00:06:29.265Z,1.70
2019-01-03T00:09:18.453Z,1.57
2019-01-03T00:12:21.098Z,1.03
2019-01-03T00:15:24.835Z,1.40
2019-01-03T00:18:20.951Z,1.40
2019-01-03T00:21:11.896Z,1.43
2019-01-03T00:24:05.756Z,1.50
2019-01-03T00:26:54.079Z,1.33
2019-01-03T00:29:43.091Z,1.03
2019-01-03T00:32:44.436Z,1.40
2019-01-03T00:35:49.063Z,1.77
2019-01-03T00:38:38.848Z,1.80
2019-01-03T00:41:43.824Z,2.20
2019-01-03T00:44:23.668Z,1.47
2019-01-03T00:47:08.655Z,1.57
2019-01-03T00:49:57.893Z,1.37
2019-01-03T00:52:48.875Z,1.80
2019-01-03T00:55:40.818Z,1.53
2019-01-03T00:58:40.153Z,1.20
2019-01-03T01:01:39.491Z,1.30
2019-01-03T01:04:29.538Z,1.73
2019-01-03T01:07:23.631Z,1.90
2019-01-03T01:10:11.955Z,1.40
2019-01-03T01:13:12.927Z,1.27
2019-01-03T01:15:55.114Z,1.37
2019-01-03T01:18:39.113Z,1.57
2019-01-03T01:21:27.186Z,1.20
2019-01-03T01:24:13.671Z,1.60
2019-01-03T01:27:01.524Z,1.30
2019-01-03T01:29:50.380Z,1.20
2019-01-03T01:32:45.951Z,1.43
2019-01-03T01:36:07.650Z,1.37
2019-01-03T01:38:56.420Z,1.40
2019-01-03T01:41:52.036Z,1.90
2019-01-03T01:44:57.195Z,1.90
2019-01-03T01:48:02.391Z,1.20
2019-01-03T01:50:55.527Z,1.50
2019-01-03T01:53:45.630Z,1.47
2019-01-03T01:56:34.525Z,1.40
2019-01-03T01:59:29.643Z,1.60
2019-01-03T02:02:19.092Z,1.47
2019-01-03T02:05:22.311Z,2.07
2019-01-03T02:08:16.123Z,1.27
2019-01-03T02:11:04.019Z,1.43
2019-01-03T02:13:49.151Z,2.03
2019-01-03T02:16:46.234Z,1.87
2019-01-03T02:19:31.074Z,1.40
2019-01-03T02:22:28.310Z,1.37
2019-01-03T02:25:24.578Z,1.57
2019-01-03T02:28:14.681Z,1.50
2019-01-03T02:31:28.398Z,1.80
2019-01-03T02:34:18.700Z,1.67
2019-01-03T02:37:06.831Z,1.63
2019-01-03T02:40:08.051Z,1.70
2019-01-03T02:43:02.795Z,1.70
2019-01-03T02:45:50.366Z,2.60
2019-01-03T02:49:06.839Z,2.30
2019-01-03T02:52:05.508Z,2.00
2019-01-03T02:54:55.055Z,1.93
2019-01-03T02:57:47.834Z,2.00
2019-01-03T03:00:39.835Z,1.60
2019-01-03T03:03:33.724Z,1.70
2019-01-03T03:06:33.254Z,2.20
2019-01-03T03:09:23.803Z,1.67
2019-01-03T03:12:30.640Z,1.43
2019-01-03T03:15:21.835Z,2.03
2019-01-03T03:18:06.486Z,1.77
2019-01-03T03:21:17.919Z,1.37
2019-01-03T03:24:04.892Z,1.60
2019-01-03T03:27:06.790Z,1.90
2019-01-03T03:29:54.609Z,1.80
2019-01-03T03:32:59.524Z,1.50
2019-01-03T03:35:47.850Z,1.67
2019-01-03T03:38:42.773Z,1.70
2019-01-03T03:41:22.444Z,1.30
2019-01-03T03:44:14.517Z,1.90
2019-01-03T03:47:01.107Z,1.50
2019-01-03T03:49:47.651Z,1.50
2019-01-03T03:52:34.422Z,2.27
2019-01-03T03:55:32.497Z,2.07
2019-01-03T03:58:20.100Z,1.43
2019-01-03T04:01:09.456Z,1.70
2019-01-03T04:04:03.670Z,1.53
2019-01-03T04:06:57.911Z,1.27
2019-01-03T04:09:44.815Z,1.03
2019-01-03T04:12:31.318Z,1.33
2019-01-03T04:15:19.127Z,1.73
2019-01-03T04:18:15.044Z,1.33
2019-01-03T04:21:04.941Z,1.70
2019-01-03T04:23:50.444Z,2.00
2019-01-03T04:26:39.702Z,1.33
2019-01-03T04:29:15.219Z,1.17
2019-01-03T04:32:03.390Z,1.30
2019-01-03T04:35:11.436Z,2.03
2019-01-03T04:37:59.247Z,1.90
2019-01-03T04:40:55.156Z,1.67
2019-01-03T04:43:58.201Z,1.30
2019-01-03T04:46:47.622Z,1.07
2019-01-03T04:49:30.011Z,1.63
2019-01-03T04:52:16.773Z,1.60
2019-01-03T04:55:06.048Z,1.90
2019-01-03T04:58:08.345Z,2.77
2019-01-03T05:01:10.977Z,1.43
2019-01-03T05:04:06.136Z,1.40
2019-01-03T05:06:54.180Z,1.73
2019-01-03T05:09:42.299Z,1.10
2019-01-03T05:12:28.130Z,1.33
2019-01-03T05:15:19.072Z,1.37
2019-01-03T05:18:07.372Z,1.40
2019-01-03T05:21:04.630Z,2.00
2019-01-03T05:24:00.237Z,1.20
2019-01-03T05:26:49.304Z,1.10
2019-01-03T05:29:35.995Z,1.37
2019-01-03T05:32:24.954Z,1.50
2019-01-03T05:35:23.106Z,1.70
2019-01-03T05:38:36.374Z,1.77
2019-01-03T05:41:27.708Z,1.57
2019-01-03T05:44:11.944Z,1.30
2019-01-03T05:47:21.426Z,1.40
2019-01-03T05:50:11.401Z,1.60
2019-01-03T05:52:59.324Z,1.97
2019-01-03T05:55:56.259Z,1.50
2019-01-03T05:58:42.087Z,1.40
2019-01-03T06:01:43.298Z,1.20
2019-01-03T06:04:44.561Z,1.03
2019-01-03T06:07:48.774Z,1.30
2019-01-03T06:10:47.052Z,1.80
2019-01-03T06:13:29.884Z,1.23
2019-01-03T06:16:17.626Z,1.33
2019-01-03T06:19:10.990Z,1.60
2019-01-03T06:22:05.198Z,1.17
2019-01-03T06:24:56.056Z,1.60
2019-01-03T06:27:47.037Z,1.87
2019-01-03T06:30:44.235Z,1.30
2019-01-03T06:33:38.027Z,1.90
2019-01-03T06:36:28.128Z,2.60
2019-01-03T06:39:42.531Z,1.43
2019-01-03T06:42:36.658Z,2.73
2019-01-03T06:45:25.014Z,1.67
2019-01-03T06:48:12.804Z,2.43
2019-01-03T06:51:18.582Z,4.70
2019-01-03T06:54:24.487Z,1.80
2019-01-03T06:57:11.386Z,2.00
2019-01-03T07:00:00.414Z,1.87
2019-01-03T07:02:53.834Z,1.93
2019-01-03T07:05:55.018Z,2.40
2019-01-03T07:08:48.851Z,2.80
2019-01-03T07:11:53.500Z,3.80
2019-01-03T07:14:39.282Z,3.30
2019-01-03T07:17:39.161Z,2.07
2019-01-03T07:20:39.087Z,2.63
2019-01-03T07:23:44.479Z,2.70
2019-01-03T07:26:38.223Z,3.77
2019-01-03T07:29:29.022Z,3.47
2019-01-03T07:32:20.310Z,2.73
2019-01-03T07:35:13.050Z,2.90
2019-01-03T07:38:16.306Z,3.07
2019-01-03T07:41:07.068Z,4.47
2019-01-03T07:44:02.880Z,3.03
2019-01-03T07:46:53.667Z,3.60
2019-01-03T07:49:58.039Z,3.80
2019-01-03T07:52:47.508Z,3.87
2019-01-03T07:55:34.332Z,2.97
2019-01-03T07:58:22.787Z,3.77
2019-01-03T08:01:11.871Z,2.60
2019-01-03T08:04:01.652Z,3.10
2019-01-03T08:06:50.175Z,3.77
2019-01-03T08:09:36.656Z,2.70
2019-01-03T08:12:42.240Z,3.10
2019-01-03T08:15:33.974Z,2.53
2019-01-03T08:18:26.747Z,4.27
2019-01-03T08:21:26.263Z,3.33
2019-01-03T08:24:26.052Z,3.60
2019-01-03T08:27:11.520Z,4.20
2019-01-03T08:30:01.711Z,3.03
2019-01-03T08:32:55.487Z,3.37
2019-01-03T08:35:44.972Z,2.60
2019-01-03T08:38:39.723Z,2.43
2019-01-03T08:41:27.755Z,3.17
2019-01-03T08:44:14.409Z,2.47
2019-01-03T08:47:11.632Z,3.57
2019-01-03T08:49:58.468Z,2.57
2019-01-03T08:52:55.603Z,2.50
2019-01-03T08:55:44.374Z,2.63
2019-01-03T08:58:31.646Z,2.10
2019-01-03T09:01:40.499Z,3.30
2019-01-03T09:04:45.926Z,2.43
2019-01-03T09:07:34.039Z,2.50
2019-01-03T09:10:21.055Z,3.13
2019-01-03T09:13:07.819Z,2.80
2019-01-03T09:16:04.253Z,2.77
2019-01-03T09:19:08.278Z,2.63
2019-01-03T09:22:05.290Z,2.57
2019-01-03T09:24:54.454Z,3.40
2019-01-03T09:27:41.324Z,2.83
2019-01-03T09:30:39.490Z,2.33
2019-01-03T09:33:27.099Z,2.80
2019-01-03T09:36:16.793Z,2.40
2019-01-03T09:39:04.832Z,3.03
2019-01-03T09:42:02.930Z,2.40
2019-01-03T09:44:46.947Z,2.67
2019-01-03T09:47:20.185Z,2.23
2019-01-03T09:49:50.619Z,1.90
2019-01-03T09:52:26.230Z,2.17
2019-01-03T09:54:58.796Z,2.63
2019-01-03T09:57:27.627Z,1.90
2019-01-03T10:00:00.244Z,1.50
2019-01-03T10:02:29.172Z,1.73
2019-01-03T10:05:00.607Z,2.03
2019-01-03T10:07:32.175Z,1.40
2019-01-03T10:10:02.690Z,2.00
2019-01-03T10:12:31.531Z,2.13
2019-01-03T10:15:09.886Z,2.33
2019-01-03T10:17:44.370Z,1.53
2019-01-03T10:20:13.339Z,1.53
2019-01-03T10:22:43.751Z,2.13
2019-01-03T10:25:15.167Z,2.60
2019-01-03T10:27:45.561Z,2.30
2019-01-03T10:30:16.251Z,1.60
2019-01-03T10:32:47.400Z,2.03
2019-01-03T10:35:18.342Z,1.70
2019-01-03T10:37:50.070Z,1.60
2019-01-03T10:40:18.943Z,2.70
2019-01-03T10:42:47.963Z,1.83
2019-01-03T10:45:18.472Z,1.83
2019-01-03T10:47:53.929Z,2.00
2019-01-03T10:50:24.324Z,1.37
2019-01-03T10:52:53.126Z,1.50
2019-01-03T10:55:27.270Z,2.63
2019-01-03T10:57:58.506Z,1.50
2019-01-03T11:00:31.715Z,2.40
2019-01-03T11:03:02.772Z,1.67
2019-01-03T11:05:31.755Z,3.03
2019-01-03T11:08:00.891Z,1.57
2019-01-03T11:10:38.657Z,2.00
2019-01-03T11:13:07.502Z,2.27
2019-01-03T11:15:36.346Z,1.70
2019-01-03T11:18:08.091Z,2.47
2019-01-03T11:20:38.293Z,1.90
2019-01-03T11:23:10.119Z,1.90
2019-01-03T11:25:40.533Z,2.03
2019-01-03T11:28:12.107Z,1.73
2019-01-03T11:30:42.235Z,1.93
2019-01-03T11:33:11.067Z,2.07
2019-01-03T11:35:39.965Z,1.57
2019-01-03T11:38:08.799Z,1.57
2019-01-03T11:40:38.689Z,1.63
2019-01-03T11:43:07.549Z,1.73
2019-01-03T11:45:39.486Z,1.67
2019-01-03T11:48:08.329Z,2.20
2019-01-03T11:50:37.163Z,1.60
2019-01-03T11:53:13.347Z,2.90
2019-01-03T11:55:55.271Z,1.83
2019-01-03T11:58:31.410Z,1.90
2019-01-03T12:01:03.326Z,2.03
2019-01-03T12:03:36.165Z,1.57
2019-01-03T12:06:06.542Z,2.03
2019-01-03T12:08:39.152Z,2.43
2019-01-03T12:11:08.966Z,1.37
2019-01-03T12:13:37.966Z,1.43
2019-01-03T12:16:06.881Z,1.50
2019-01-03T12:18:37.894Z,2.67
2019-01-03T12:21:15.118Z,1.97
2019-01-03T12:23:47.059Z,1.57
2019-01-03T12:26:16.130Z,2.10
2019-01-03T12:28:45.987Z,2.00
2019-01-03T12:31:16.223Z,1.23
2019-01-03T12:33:54.419Z,2.20
2019-01-03T12:36:30.424Z,2.17
2019-01-03T12:39:00.782Z,2.00
2019-01-03T12:41:31.987Z,1.77
2019-01-03T12:44:08.076Z,1.80
2019-01-03T12:46:36.914Z,2.23
2019-01-03T12:49:10.408Z,2.00
2019-01-03T12:51:39.300Z,1.73
2019-01-03T12:54:11.988Z,2.30
2019-01-03T12:56:49.479Z,2.50
2019-01-03T12:59:20.524Z,1.67
2019-01-03T13:01:50.900Z,1.77
2019-01-03T13:04:22.221Z,1.77
2019-01-03T13:06:51.126Z,1.83
2019-01-03T13:09:23.236Z,1.70
2019-01-03T13:11:54.939Z,1.60
2019-01-03T13:14:25.322Z,2.33
2019-01-03T13:16:56.554Z,1.60
2019-01-03T13:19:25.365Z,2.20
2019-01-03T13:21:54.346Z,1.60
2019-01-03T13:24:23.147Z,1.80
2019-01-03T13:26:54.559Z,1.67
2019-01-03T13:29:23.392Z,2.00
2019-01-03T13:31:55.046Z,2.07
2019-01-03T13:34:25.997Z,1.60
2019-01-03T13:36:54.799Z,2.10
2019-01-03T13:39:27.689Z,1.73
2019-01-03T13:41:58.041Z,2.20
2019-01-03T13:44:28.447Z,2.20
2019-01-03T13:46:58.805Z,1.77
2019-01-03T13:49:29.802Z,1.70
2019-01-03T13:51:58.697Z,2.60
2019-01-03T13:54:27.775Z,1.80
2019-01-03T13:57:00.532Z,3.40
2019-01-03T13:59:32.858Z,2.77
2019-01-03T14:02:01.691Z,2.33
2019-01-03T14:04:34.351Z,2.13
2019-01-03T14:07:06.836Z,1.93
2019-01-03T14:09:46.370Z,1.47
2019-01-03T14:12:17.874Z,1.87
2019-01-03T14:14:50.443Z,1.53
2019-01-03T14:17:19.259Z,1.73
2019-01-03T14:19:50.435Z,2.80
2019-01-03T14:22:20.886Z,1.60
2019-01-03T14:24:49.734Z,2.10
2019-01-03T14:27:18.804Z,1.67
2019-01-03T14:29:50.934Z,1.37
2019-01-03T14:32:41.422Z,1.83
2019-01-03T14:35:15.560Z,1.73
2019-01-03T14:37:44.379Z,1.87
2019-01-03T14:40:14.759Z,1.73
2019-01-03T14:42:48.193Z,2.30
2019-01-03T14:45:19.610Z,2.43
2019-01-03T14:47:51.140Z,2.20
2019-01-03T14:50:27.426Z,1.40
2019-01-03T14:52:56.250Z,1.93
2019-01-03T14:55:32.487Z,2.03
2019-01-03T14:58:05.168Z,2.23
2019-01-03T15:00:35.284Z,2.10
2019-01-03T15:03:05.691Z,3.33
2019-01-03T15:05:37.356Z,1.63
2019-01-03T15:08:06.268Z,2.47
2019-01-03T15:10:35.078Z,2.17
2019-01-03T15:13:07.734Z,2.40
2019-01-03T15:15:45.606Z,1.67
2019-01-03T15:18:14.721Z,1.60
2019-01-03T15:20:43.548Z,2.13
2019-01-03T15:23:12.385Z,2.53
2019-01-03T15:25:41.372Z,1.63
2019-01-03T15:28:10.210Z,1.93
2019-01-03T15:30:39.195Z,1.63
2019-01-03T15:33:08.045Z,1.70
2019-01-03T15:35:36.955Z,2.27
2019-01-03T15:38:05.762Z,1.70
2019-01-03T15:40:34.603Z,1.70
2019-01-03T15:43:03.458Z,2.73
2019-01-03T15:45:32.287Z,1.80
2019-01-03T15:48:01.128Z,1.97
2019-01-03T15:50:29.939Z,2.60
2019-01-03T15:52:58.790Z,2.47
2019-01-03T15:55:27.655Z,2.40
2019-01-03T15:57:56.471Z,2.73
2019-01-03T16:00:25.470Z,2.13
2019-01-03T16:02:55.193Z,2.90
2019-01-03T16:05:24.213Z,2.50
2019-01-03T16:07:53.059Z,2.37
2019-01-03T16:10:21.978Z,2.50
2019-01-03T16:12:50.780Z,2.20
2019-01-03T16:15:19.614Z,2.63
2019-01-03T16:17:48.522Z,2.50
2019-01-03T16:20:17.438Z,2.60
2019-01-03T16:22:46.325Z,3.23
2019-01-03T16:25:15.163Z,2.20
2019-01-03T16:27:44.045Z,2.53
2019-01-03T16:30:13.137Z,3.07
2019-01-03T16:32:42.118Z,2.67
2019-01-03T16:35:11.012Z,2.63
2019-01-03T16:37:39.831Z,4.00
2019-01-03T16:40:09.705Z,3.40
2019-01-03T16:42:40.527Z,4.13
2019-01-03T16:45:10.163Z,3.40
2019-01-03T16:47:39.179Z,4.00
2019-01-03T16:50:10.774Z,4.10
2019-01-03T16:52:39.658Z,4.23
2019-01-03T16:55:08.631Z,3.30
2019-01-03T16:57:37.588Z,3.93
2019-01-03T17:00:07.621Z,3.27
2019-01-03T17:02:36.522Z,3.37
2019-01-03T17:05:06.052Z,3.60
2019-01-03T17:07:34.983Z,2.63
2019-01-03T17:10:04.236Z,3.63
2019-01-03T17:12:33.078Z,3.20
2019-01-03T17:15:02.143Z,3.53
2019-01-03T17:17:31.107Z,3.87
2019-01-03T17:20:00.037Z,3.73
2019-01-03T17:22:29.013Z,3.70
2019-01-03T17:24:58.017Z,3.90
2019-01-03T17:27:26.896Z,3.33
2019-01-03T17:29:55.864Z,4.93
2019-01-03T17:32:24.786Z,3.80
2019-01-03T17:34:53.680Z,3.53
2019-01-03T17:37:22.653Z,4.17
2019-01-03T17:39:51.526Z,4.83
2019-01-03T17:42:20.426Z,4.97
2019-01-03T17:44:49.436Z,4.03
2019-01-03T17:47:18.325Z,5.20
2019-01-03T17:49:47.166Z,4.17
2019-01-03T17:52:16.061Z,4.50
2019-01-03T17:54:44.867Z,4.77
2019-01-03T17:57:13.871Z,4.20
2019-01-03T17:59:42.678Z,4.83
2019-01-03T18:02:11.494Z,3.40
2019-01-03T18:04:40.430Z,4.87
2019-01-03T18:07:09.359Z,3.40
2019-01-03T18:09:38.296Z,3.53
2019-01-03T18:12:07.128Z,3.43
2019-01-03T18:14:35.979Z,3.80
2019-01-03T18:17:04.970Z,4.43
2019-01-03T18:19:33.808Z,3.90
2019-01-03T18:22:02.727Z,4.30
2019-01-03T18:24:31.556Z,4.00
2019-01-03T18:27:00.506Z,4.77
2019-01-03T18:29:29.407Z,3.83
2019-01-03T18:32:17.516Z,5.13
2019-01-03T18:34:47.239Z,5.30
2019-01-03T18:37:16.280Z,4.60
2019-01-03T18:39:45.169Z,4.57
2019-01-03T18:42:14.150Z,3.80
2019-01-03T18:44:42.977Z,4.20
2019-01-03T18:47:11.861Z,4.70
2019-01-03T18:49:40.699Z,4.73
2019-01-03T18:52:09.619Z,3.50
2019-01-03T18:54:38.526Z,6.00
2019-01-03T18:57:07.404Z,5.23
2019-01-03T18:59:36.395Z,4.40
2019-01-03T19:02:05.380Z,5.13
2019-01-03T19:04:34.333Z,4.33
2019-01-03T19:07:03.242Z,4.70
2019-01-03T19:09:32.112Z,3.90
2019-01-03T19:12:01.125Z,4.77
2019-01-03T19:14:29.985Z,4.03
2019-01-03T19:16:58.963Z,4.53
2019-01-03T19:19:27.990Z,4.20
2019-01-03T19:21:56.940Z,4.80
2019-01-03T19:24:25.770Z,5.23
2019-01-03T19:26:54.747Z,5.07
2019-01-03T19:29:23.647Z,5.50
2019-01-03T19:31:52.504Z,5.77
2019-01-03T19:34:21.452Z,6.00
2019-01-03T19:36:50.445Z,6.30
2019-01-03T19:39:19.428Z,4.93
2019-01-03T19:41:48.388Z,5.67
2019-01-03T19:44:17.425Z,6.40
2019-01-03T19:46:46.337Z,6.60
2019-01-03T19:49:15.364Z,6.80
2019-01-03T19:51:44.350Z,5.47
2019-01-03T19:54:18.374Z,5.97
2019-01-03T19:56:47.463Z,6.37
2019-01-03T19:59:16.435Z,6.50
2019-01-03T20:02:04.640Z,5.80
2019-01-03T20:04:33.516Z,6.10
2019-01-03T20:07:02.377Z,5.87
2019-01-03T20:09:31.224Z,5.90
2019-01-03T20:12:00.195Z,6.00
2019-01-03T20:14:29.120Z,5.90
2019-01-03T20:16:58.102Z,6.73
2019-01-03T20:19:27.166Z,6.33
2019-01-03T20:21:56.060Z,7.33
2019-01-03T20:24:24.905Z,6.43
2019-01-03T20:26:53.779Z,6.03
2019-01-03T20:29:22.691Z,6.40
2019-01-03T20:31:51.720Z,7.37
2019-01-03T20:34:20.754Z,8.60
2019-01-03T20:39:20.695Z,6.30
2019-01-03T20:41:49.655Z,7.00
2019-01-03T20:44:18.578Z,6.10
2019-01-03T20:46:47.940Z,7.50
2019-01-03T20:49:16.758Z,8.20
2019-01-03T20:52:04.884Z,6.90
2019-01-03T20:54:33.756Z,6.90
2019-01-03T20:57:02.722Z,6.37
2019-01-03T20:59:32.011Z,6.80
2019-01-03T21:02:00.986Z,6.37
2019-01-03T21:04:29.969Z,6.77
2019-01-03T21:06:59.107Z,6.87
2019-01-03T21:09:28.175Z,7.80
2019-01-03T21:11:57.228Z,7.53
2019-01-03T21:14:26.456Z,8.77
2019-01-03T21:16:55.651Z,7.70
2019-01-03T21:19:24.640Z,6.50
2019-01-03T21:22:12.988Z,6.83
2019-01-03T21:24:42.027Z,9.30
2019-01-03T21:27:10.326Z,8.60
2019-01-03T21:29:39.404Z,6.50
2019-01-03T21:32:08.387Z,6.13
2019-01-03T21:34:37.363Z,6.37
2019-01-03T21:37:06.498Z,6.33
2019-01-03T21:39:35.457Z,5.90
2019-01-03T21:42:04.563Z,6.27
2019-01-03T21:44:33.588Z,5.90
2019-01-03T21:47:02.604Z,5.17
2019-01-03T21:49:31.700Z,6.37
2019-01-03T21:52:00.772Z,6.23
2019-01-03T21:54:29.810Z,5.23
2019-01-03T21:56:58.842Z,6.20
2019-01-03T21:59:27.998Z,5.57
2019-01-03T22:01:56.908Z,6.20
2019-01-03T22:04:25.744Z,5.73
2019-01-03T22:07:00.658Z,5.17
2019-01-03T22:09:29.539Z,5.53
2019-01-03T22:11:58.450Z,6.73
2019-01-03T22:14:27.274Z,5.70
2019-01-03T22:16:56.106Z,4.63
2019-01-03T22:19:24.930Z,5.17
2019-01-03T22:21:53.756Z,5.57
2019-01-03T22:24:22.582Z,4.67
2019-01-03T22:26:51.436Z,4.70
2019-01-03T22:29:20.281Z,5.43
2019-01-03T22:31:49.189Z,5.37
2019-01-03T22:34:18.133Z,4.27
2019-01-03T22:36:47.158Z,4.30
2019-01-03T22:39:16.175Z,5.10
2019-01-03T22:41:45.050Z,4.83
2019-01-03T22:44:13.875Z,4.00
2019-01-03T22:46:42.719Z,4.30
2019-01-03T22:49:11.671Z,4.67
2019-01-03T22:51:40.469Z,4.70
2019-01-03T22:54:09.511Z,4.13
2019-01-03T22:56:38.371Z,4.03
2019-01-03T23:01:39.302Z,4.73
2019-01-03T23:04:08.146Z,4.77
2019-01-03T23:06:37.050Z,4.10
2019-01-03T23:09:06.695Z,5.90
2019-01-03T23:11:35.611Z,3.87
2019-01-03T23:14:04.531Z,4.63
2019-01-03T23:16:33.469Z,4.50
2019-01-03T23:19:02.376Z,5.07
2019-01-03T23:21:31.223Z,4.23
2019-01-03T23:24:00.138Z,4.00
2019-01-03T23:26:29.008Z,5.77
2019-01-03T23:28:57.879Z,4.03
2019-01-03T23:31:26.710Z,4.03
2019-01-03T23:33:55.554Z,4.00
2019-01-03T23:36:24.446Z,4.40
2019-01-03T23:38:53.429Z,3.73
2019-01-03T23:41:22.438Z,3.70
2019-01-03T23:43:51.280Z,3.53
2019-01-03T23:46:20.196Z,3.90
2019-01-03T23:48:49.178Z,3.40
2019-01-03T23:51:18.163Z,4.03
2019-01-03T23:53:47.239Z,3.93
2019-01-03T23:56:16.149Z,3.93
2019-01-03T23:58:45.053Z,3.70
